sensor_id;sensor_type;location;lat;lon;timestamp;temperature;humidity
13326;DHT22;6732;51.044;3.746;2022-07-29T00:00:44;20.50;92.20
13326;DHT22;6732;51.044;3.746;2022-07-29T00:03:12;20.50;92.00
13326;DHT22;6732;51.044;3.746;2022-07-29T00:05:39;20.50;92.20
13326;DHT22;6732;51.044;3.746;2022-07-29T00:08:07;20.50;92.10
13326;DHT22;6732;51.044;3.746;2022-07-29T00:10:33;20.50;92.00
13326;DHT22;6732;51.044;3.746;2022-07-29T00:13:00;20.50;92.10
13326;DHT22;6732;51.044;3.746;2022-07-29T00:15:26;20.50;92.20
13326;DHT22;6732;51.044;3.746;2022-07-29T00:17:52;20.40;92.00
13326;DHT22;6732;51.044;3.746;2022-07-29T00:20:19;20.40;92.00
13326;DHT22;6732;51.044;3.746;2022-07-29T00:22:45;20.40;92.20
13326;DHT22;6732;51.044;3.746;2022-07-29T00:25:12;20.40;92.10
13326;DHT22;6732;51.044;3.746;2022-07-29T00:27:38;20.40;92.20
13326;DHT22;6732;51.044;3.746;2022-07-29T00:30:05;20.40;92.20
13326;DHT22;6732;51.044;3.746;2022-07-29T00:32:31;20.40;92.10
13326;DHT22;6732;51.044;3.746;2022-07-29T00:34:57;20.40;92.20
13326;DHT22;6732;51.044;3.746;2022-07-29T00:37:42;20.40;92.10
13326;DHT22;6732;51.044;3.746;2022-07-29T00:40:08;20.40;92.60
13326;DHT22;6732;51.044;3.746;2022-07-29T00:42:45;20.30;92.30
13326;DHT22;6732;51.044;3.746;2022-07-29T00:45:12;20.40;92.10
13326;DHT22;6732;51.044;3.746;2022-07-29T00:47:38;20.30;92.20
13326;DHT22;6732;51.044;3.746;2022-07-29T00:50:05;20.30;92.20
13326;DHT22;6732;51.044;3.746;2022-07-29T00:52:33;20.30;92.10
13326;DHT22;6732;51.044;3.746;2022-07-29T00:54:59;20.30;92.40
13326;DHT22;6732;51.044;3.746;2022-07-29T00:57:25;20.30;92.40
13326;DHT22;6732;51.044;3.746;2022-07-29T00:59:51;20.30;92.30
13326;DHT22;6732;51.044;3.746;2022-07-29T01:02:17;20.20;92.40
13326;DHT22;6732;51.044;3.746;2022-07-29T01:04:43;20.20;92.40
13326;DHT22;6732;51.044;3.746;2022-07-29T01:07:10;20.20;92.50
13326;DHT22;6732;51.044;3.746;2022-07-29T01:09:36;20.20;92.50
13326;DHT22;6732;51.044;3.746;2022-07-29T01:12:03;20.20;92.40
13326;DHT22;6732;51.044;3.746;2022-07-29T01:14:31;20.20;92.60
13326;DHT22;6732;51.044;3.746;2022-07-29T01:17:02;20.20;92.70
13326;DHT22;6732;51.044;3.746;2022-07-29T01:28:39;20.10;93.10
13326;DHT22;6732;51.044;3.746;2022-07-29T01:31:11;20.10;93.20
13326;DHT22;6732;51.044;3.746;2022-07-29T01:33:42;20.10;93.20
13326;DHT22;6732;51.044;3.746;2022-07-29T01:36:35;20.00;93.20
13326;DHT22;6732;51.044;3.746;2022-07-29T01:39:14;20.00;93.20
13326;DHT22;6732;51.044;3.746;2022-07-29T01:41:59;20.00;93.30
13326;DHT22;6732;51.044;3.746;2022-07-29T01:44:33;20.00;93.30
13326;DHT22;6732;51.044;3.746;2022-07-29T01:47:04;20.00;93.30
13326;DHT22;6732;51.044;3.746;2022-07-29T01:49:35;19.90;93.20
13326;DHT22;6732;51.044;3.746;2022-07-29T01:52:05;19.90;93.20
13326;DHT22;6732;51.044;3.746;2022-07-29T01:54:41;19.90;93.30
13326;DHT22;6732;51.044;3.746;2022-07-29T01:57:14;19.90;93.30
13326;DHT22;6732;51.044;3.746;2022-07-29T01:59:41;19.90;93.40
13326;DHT22;6732;51.044;3.746;2022-07-29T02:02:09;19.80;93.40
13326;DHT22;6732;51.044;3.746;2022-07-29T02:04:38;19.80;93.40
13326;DHT22;6732;51.044;3.746;2022-07-29T02:07:07;19.80;93.20
13326;DHT22;6732;51.044;3.746;2022-07-29T02:09:37;19.80;93.40
13326;DHT22;6732;51.044;3.746;2022-07-29T02:12:06;19.80;93.50
13326;DHT22;6732;51.044;3.746;2022-07-29T02:14:43;19.80;93.40
13326;DHT22;6732;51.044;3.746;2022-07-29T02:17:12;19.70;93.40
13326;DHT22;6732;51.044;3.746;2022-07-29T02:19:39;19.70;93.50
13326;DHT22;6732;51.044;3.746;2022-07-29T02:22:06;19.70;93.50
13326;DHT22;6732;51.044;3.746;2022-07-29T02:24:35;19.70;93.60
13326;DHT22;6732;51.044;3.746;2022-07-29T02:27:03;19.60;93.60
13326;DHT22;6732;51.044;3.746;2022-07-29T02:29:30;19.60;93.60
13326;DHT22;6732;51.044;3.746;2022-07-29T02:31:58;19.60;93.60
13326;DHT22;6732;51.044;3.746;2022-07-29T02:34:27;19.60;93.60
13326;DHT22;6732;51.044;3.746;2022-07-29T02:36:55;19.60;93.70
13326;DHT22;6732;51.044;3.746;2022-07-29T02:39:22;19.60;93.70
13326;DHT22;6732;51.044;3.746;2022-07-29T02:42:01;19.50;93.70
13326;DHT22;6732;51.044;3.746;2022-07-29T02:44:29;19.50;93.70
13326;DHT22;6732;51.044;3.746;2022-07-29T02:47:04;19.50;93.70
13326;DHT22;6732;51.044;3.746;2022-07-29T02:53:04;19.50;93.90
13326;DHT22;6732;51.044;3.746;2022-07-29T02:55:37;19.50;93.70
13326;DHT22;6732;51.044;3.746;2022-07-29T02:58:21;19.40;93.80
13326;DHT22;6732;51.044;3.746;2022-07-29T03:00:52;19.40;93.80
13326;DHT22;6732;51.044;3.746;2022-07-29T03:03:19;19.40;93.90
13326;DHT22;6732;51.044;3.746;2022-07-29T03:05:46;19.40;93.90
13326;DHT22;6732;51.044;3.746;2022-07-29T03:08:14;19.30;93.90
13326;DHT22;6732;51.044;3.746;2022-07-29T03:10:43;19.30;93.90
13326;DHT22;6732;51.044;3.746;2022-07-29T03:13:11;19.30;94.00
13326;DHT22;6732;51.044;3.746;2022-07-29T03:15:39;19.30;94.10
13326;DHT22;6732;51.044;3.746;2022-07-29T03:18:05;19.30;94.10
13326;DHT22;6732;51.044;3.746;2022-07-29T03:20:32;19.30;94.00
13326;DHT22;6732;51.044;3.746;2022-07-29T03:22:58;19.20;94.00
13326;DHT22;6732;51.044;3.746;2022-07-29T03:25:24;19.20;94.00
13326;DHT22;6732;51.044;3.746;2022-07-29T03:27:50;19.20;94.10
13326;DHT22;6732;51.044;3.746;2022-07-29T03:30:17;19.20;94.10
13326;DHT22;6732;51.044;3.746;2022-07-29T03:32:43;19.20;94.20
13326;DHT22;6732;51.044;3.746;2022-07-29T03:35:10;19.10;94.20
13326;DHT22;6732;51.044;3.746;2022-07-29T03:37:36;19.20;94.30
13326;DHT22;6732;51.044;3.746;2022-07-29T03:40:06;19.10;94.30
13326;DHT22;6732;51.044;3.746;2022-07-29T03:42:34;19.10;94.30
13326;DHT22;6732;51.044;3.746;2022-07-29T03:45:05;19.10;94.30
13326;DHT22;6732;51.044;3.746;2022-07-29T03:47:33;19.00;94.30
13326;DHT22;6732;51.044;3.746;2022-07-29T03:50:05;19.00;94.40
13326;DHT22;6732;51.044;3.746;2022-07-29T03:52:32;19.00;94.40
13326;DHT22;6732;51.044;3.746;2022-07-29T03:54:58;19.00;94.50
13326;DHT22;6732;51.044;3.746;2022-07-29T03:57:27;19.00;94.50
13326;DHT22;6732;51.044;3.746;2022-07-29T03:59:54;19.00;94.50
13326;DHT22;6732;51.044;3.746;2022-07-29T04:02:20;19.00;94.60
13326;DHT22;6732;51.044;3.746;2022-07-29T04:04:47;18.90;94.60
13326;DHT22;6732;51.044;3.746;2022-07-29T04:07:14;18.90;94.60
13326;DHT22;6732;51.044;3.746;2022-07-29T04:09:40;18.90;94.60
13326;DHT22;6732;51.044;3.746;2022-07-29T04:12:07;18.90;94.70
13326;DHT22;6732;51.044;3.746;2022-07-29T04:14:33;18.90;94.70
13326;DHT22;6732;51.044;3.746;2022-07-29T04:17:04;18.90;94.70
13326;DHT22;6732;51.044;3.746;2022-07-29T04:19:30;18.80;94.80
13326;DHT22;6732;51.044;3.746;2022-07-29T04:21:57;18.80;94.90
13326;DHT22;6732;51.044;3.746;2022-07-29T04:24:24;18.80;94.90
13326;DHT22;6732;51.044;3.746;2022-07-29T04:26:51;18.80;94.90
13326;DHT22;6732;51.044;3.746;2022-07-29T04:29:17;18.80;95.00
13326;DHT22;6732;51.044;3.746;2022-07-29T04:31:43;18.80;95.00
13326;DHT22;6732;51.044;3.746;2022-07-29T04:34:10;18.70;95.00
13326;DHT22;6732;51.044;3.746;2022-07-29T04:36:36;18.70;95.00
13326;DHT22;6732;51.044;3.746;2022-07-29T04:39:03;18.70;95.00
13326;DHT22;6732;51.044;3.746;2022-07-29T04:41:29;18.70;95.00
13326;DHT22;6732;51.044;3.746;2022-07-29T04:43:55;18.70;95.10
13326;DHT22;6732;51.044;3.746;2022-07-29T04:46:21;18.70;95.10
13326;DHT22;6732;51.044;3.746;2022-07-29T04:48:47;18.70;95.20
13326;DHT22;6732;51.044;3.746;2022-07-29T04:51:14;18.70;95.30
13326;DHT22;6732;51.044;3.746;2022-07-29T04:53:41;18.70;95.20
13326;DHT22;6732;51.044;3.746;2022-07-29T04:56:06;18.70;95.10
13326;DHT22;6732;51.044;3.746;2022-07-29T04:58:35;18.70;95.10
13326;DHT22;6732;51.044;3.746;2022-07-29T05:01:02;18.70;95.20
13326;DHT22;6732;51.044;3.746;2022-07-29T05:03:29;18.70;95.20
13326;DHT22;6732;51.044;3.746;2022-07-29T05:05:55;18.70;95.10
13326;DHT22;6732;51.044;3.746;2022-07-29T05:08:20;18.70;95.10
13326;DHT22;6732;51.044;3.746;2022-07-29T05:10:47;18.70;95.00
13326;DHT22;6732;51.044;3.746;2022-07-29T05:13:13;18.70;95.10
13326;DHT22;6732;51.044;3.746;2022-07-29T05:15:39;18.70;95.30
13326;DHT22;6732;51.044;3.746;2022-07-29T05:18:05;18.70;95.20
13326;DHT22;6732;51.044;3.746;2022-07-29T05:20:31;18.70;95.30
13326;DHT22;6732;51.044;3.746;2022-07-29T05:22:59;18.70;95.50
13326;DHT22;6732;51.044;3.746;2022-07-29T05:25:26;18.70;95.40
13326;DHT22;6732;51.044;3.746;2022-07-29T05:27:52;18.70;95.40
13326;DHT22;6732;51.044;3.746;2022-07-29T05:30:19;18.70;95.60
13326;DHT22;6732;51.044;3.746;2022-07-29T05:32:45;18.70;95.50
13326;DHT22;6732;51.044;3.746;2022-07-29T05:35:12;18.70;95.60
13326;DHT22;6732;51.044;3.746;2022-07-29T05:37:39;18.70;95.60
13326;DHT22;6732;51.044;3.746;2022-07-29T05:40:05;18.70;95.60
13326;DHT22;6732;51.044;3.746;2022-07-29T05:42:31;18.70;95.80
13326;DHT22;6732;51.044;3.746;2022-07-29T05:44:57;18.70;95.90
13326;DHT22;6732;51.044;3.746;2022-07-29T05:47:24;18.70;95.90
13326;DHT22;6732;51.044;3.746;2022-07-29T05:49:50;18.70;95.90
13326;DHT22;6732;51.044;3.746;2022-07-29T05:52:16;18.80;95.80
13326;DHT22;6732;51.044;3.746;2022-07-29T05:54:43;18.70;95.90
13326;DHT22;6732;51.044;3.746;2022-07-29T05:57:15;18.80;96.10
13326;DHT22;6732;51.044;3.746;2022-07-29T05:59:41;18.80;95.80
13326;DHT22;6732;51.044;3.746;2022-07-29T06:02:07;18.80;95.80
13326;DHT22;6732;51.044;3.746;2022-07-29T06:04:33;18.80;95.70
13326;DHT22;6732;51.044;3.746;2022-07-29T06:07:00;18.80;95.60
13326;DHT22;6732;51.044;3.746;2022-07-29T06:09:25;18.80;95.80
13326;DHT22;6732;51.044;3.746;2022-07-29T06:11:52;18.80;95.70
13326;DHT22;6732;51.044;3.746;2022-07-29T06:14:18;18.80;95.60
13326;DHT22;6732;51.044;3.746;2022-07-29T06:16:44;18.80;95.50
13326;DHT22;6732;51.044;3.746;2022-07-29T06:19:10;18.80;95.50
13326;DHT22;6732;51.044;3.746;2022-07-29T06:21:36;18.90;95.50
13326;DHT22;6732;51.044;3.746;2022-07-29T06:24:02;18.80;95.50
13326;DHT22;6732;51.044;3.746;2022-07-29T06:26:28;18.80;95.40
13326;DHT22;6732;51.044;3.746;2022-07-29T06:28:54;18.90;95.40
13326;DHT22;6732;51.044;3.746;2022-07-29T06:31:20;18.90;95.40
13326;DHT22;6732;51.044;3.746;2022-07-29T06:33:46;18.90;95.40
13326;DHT22;6732;51.044;3.746;2022-07-29T06:36:12;18.90;95.90
13326;DHT22;6732;51.044;3.746;2022-07-29T06:38:38;18.90;95.80
13326;DHT22;6732;51.044;3.746;2022-07-29T06:41:04;18.90;95.70
13326;DHT22;6732;51.044;3.746;2022-07-29T06:43:32;19.00;95.60
13326;DHT22;6732;51.044;3.746;2022-07-29T06:46:00;19.00;95.50
13326;DHT22;6732;51.044;3.746;2022-07-29T06:48:27;19.00;95.50
13326;DHT22;6732;51.044;3.746;2022-07-29T06:50:54;19.00;95.50
13326;DHT22;6732;51.044;3.746;2022-07-29T06:53:20;19.00;95.60
13326;DHT22;6732;51.044;3.746;2022-07-29T06:55:46;19.00;95.70
13326;DHT22;6732;51.044;3.746;2022-07-29T06:58:12;19.00;95.50
13326;DHT22;6732;51.044;3.746;2022-07-29T07:00:39;19.00;95.60
13326;DHT22;6732;51.044;3.746;2022-07-29T07:03:06;19.00;95.80
13326;DHT22;6732;51.044;3.746;2022-07-29T07:05:32;19.10;96.10
13326;DHT22;6732;51.044;3.746;2022-07-29T07:07:58;19.10;96.30
13326;DHT22;6732;51.044;3.746;2022-07-29T07:10:24;19.10;96.30
13326;DHT22;6732;51.044;3.746;2022-07-29T07:12:50;19.10;95.90
13326;DHT22;6732;51.044;3.746;2022-07-29T07:15:16;19.10;95.80
13326;DHT22;6732;51.044;3.746;2022-07-29T07:17:42;19.10;95.80
13326;DHT22;6732;51.044;3.746;2022-07-29T07:20:08;19.10;95.90
13326;DHT22;6732;51.044;3.746;2022-07-29T07:22:34;19.20;96.20
13326;DHT22;6732;51.044;3.746;2022-07-29T07:25:00;19.20;96.30
13326;DHT22;6732;51.044;3.746;2022-07-29T07:27:26;19.20;96.20
13326;DHT22;6732;51.044;3.746;2022-07-29T07:29:52;19.20;96.00
13326;DHT22;6732;51.044;3.746;2022-07-29T07:32:18;19.30;95.70
13326;DHT22;6732;51.044;3.746;2022-07-29T07:34:45;19.30;95.80
13326;DHT22;6732;51.044;3.746;2022-07-29T07:37:10;19.30;95.80
13326;DHT22;6732;51.044;3.746;2022-07-29T07:39:36;19.30;95.80
13326;DHT22;6732;51.044;3.746;2022-07-29T07:42:03;19.30;96.10
13326;DHT22;6732;51.044;3.746;2022-07-29T07:44:29;19.40;96.10
13326;DHT22;6732;51.044;3.746;2022-07-29T07:46:55;19.40;96.00
13326;DHT22;6732;51.044;3.746;2022-07-29T07:49:21;19.50;95.80
13326;DHT22;6732;51.044;3.746;2022-07-29T07:51:47;19.50;95.60
13326;DHT22;6732;51.044;3.746;2022-07-29T07:54:13;19.50;95.60
13326;DHT22;6732;51.044;3.746;2022-07-29T07:56:39;19.60;95.50
13326;DHT22;6732;51.044;3.746;2022-07-29T07:59:05;19.60;95.70
13326;DHT22;6732;51.044;3.746;2022-07-29T08:01:31;19.70;95.50
13326;DHT22;6732;51.044;3.746;2022-07-29T08:03:57;19.70;95.50
13326;DHT22;6732;51.044;3.746;2022-07-29T08:06:35;19.70;95.50
13326;DHT22;6732;51.044;3.746;2022-07-29T08:09:09;19.80;95.50
13326;DHT22;6732;51.044;3.746;2022-07-29T08:11:35;19.90;95.50
13326;DHT22;6732;51.044;3.746;2022-07-29T08:14:02;19.90;95.50
13326;DHT22;6732;51.044;3.746;2022-07-29T08:16:27;20.00;95.40
13326;DHT22;6732;51.044;3.746;2022-07-29T08:18:53;20.00;95.50
13326;DHT22;6732;51.044;3.746;2022-07-29T08:21:23;20.10;95.60
13326;DHT22;6732;51.044;3.746;2022-07-29T08:23:50;20.20;95.70
13326;DHT22;6732;51.044;3.746;2022-07-29T08:26:21;20.20;95.70
13326;DHT22;6732;51.044;3.746;2022-07-29T08:28:48;20.20;95.70
13326;DHT22;6732;51.044;3.746;2022-07-29T08:31:16;20.30;95.50
13326;DHT22;6732;51.044;3.746;2022-07-29T08:33:42;20.40;95.40
13326;DHT22;6732;51.044;3.746;2022-07-29T08:36:08;20.40;95.20
13326;DHT22;6732;51.044;3.746;2022-07-29T08:38:35;20.50;95.20
13326;DHT22;6732;51.044;3.746;2022-07-29T08:41:01;20.50;95.30
13326;DHT22;6732;51.044;3.746;2022-07-29T08:43:30;20.60;95.40
13326;DHT22;6732;51.044;3.746;2022-07-29T08:45:56;20.60;95.50
13326;DHT22;6732;51.044;3.746;2022-07-29T08:48:23;20.70;95.20
13326;DHT22;6732;51.044;3.746;2022-07-29T08:50:54;20.70;95.20
13326;DHT22;6732;51.044;3.746;2022-07-29T08:53:21;20.80;94.80
13326;DHT22;6732;51.044;3.746;2022-07-29T08:55:49;20.80;94.70
13326;DHT22;6732;51.044;3.746;2022-07-29T08:58:16;20.90;94.70
13326;DHT22;6732;51.044;3.746;2022-07-29T09:00:45;20.90;94.40
13326;DHT22;6732;51.044;3.746;2022-07-29T09:03:17;21.00;94.40
13326;DHT22;6732;51.044;3.746;2022-07-29T09:05:44;21.00;94.60
13326;DHT22;6732;51.044;3.746;2022-07-29T09:08:11;21.10;94.70
13326;DHT22;6732;51.044;3.746;2022-07-29T09:10:38;21.10;94.60
13326;DHT22;6732;51.044;3.746;2022-07-29T09:13:05;21.20;94.50
13326;DHT22;6732;51.044;3.746;2022-07-29T09:15:31;21.20;94.30
13326;DHT22;6732;51.044;3.746;2022-07-29T09:17:57;21.30;94.30
13326;DHT22;6732;51.044;3.746;2022-07-29T09:20:26;21.30;94.10
13326;DHT22;6732;51.044;3.746;2022-07-29T09:22:52;21.40;93.90
13326;DHT22;6732;51.044;3.746;2022-07-29T09:25:38;21.50;93.90
13326;DHT22;6732;51.044;3.746;2022-07-29T09:28:14;21.50;93.50
13326;DHT22;6732;51.044;3.746;2022-07-29T09:30:57;21.50;93.50
13326;DHT22;6732;51.044;3.746;2022-07-29T09:33:32;21.60;93.60
13326;DHT22;6732;51.044;3.746;2022-07-29T09:36:06;21.60;93.50
13326;DHT22;6732;51.044;3.746;2022-07-29T09:38:33;21.60;93.30
13326;DHT22;6732;51.044;3.746;2022-07-29T09:41:01;21.70;93.50
13326;DHT22;6732;51.044;3.746;2022-07-29T09:43:28;21.70;93.50
13326;DHT22;6732;51.044;3.746;2022-07-29T09:45:54;21.80;93.60
13326;DHT22;6732;51.044;3.746;2022-07-29T09:48:24;21.80;93.40
13326;DHT22;6732;51.044;3.746;2022-07-29T09:50:50;21.80;93.30
13326;DHT22;6732;51.044;3.746;2022-07-29T09:53:31;21.90;93.20
13326;DHT22;6732;51.044;3.746;2022-07-29T09:55:58;21.90;93.10
13326;DHT22;6732;51.044;3.746;2022-07-29T09:58:24;21.90;93.00
13326;DHT22;6732;51.044;3.746;2022-07-29T10:00:51;21.90;92.90
13326;DHT22;6732;51.044;3.746;2022-07-29T10:03:17;21.90;92.50
13326;DHT22;6732;51.044;3.746;2022-07-29T10:05:45;21.90;92.40
13326;DHT22;6732;51.044;3.746;2022-07-29T10:08:11;22.00;92.30
13326;DHT22;6732;51.044;3.746;2022-07-29T10:10:42;22.00;92.20
13326;DHT22;6732;51.044;3.746;2022-07-29T10:13:10;22.00;91.90
13326;DHT22;6732;51.044;3.746;2022-07-29T10:15:38;22.00;91.70
13326;DHT22;6732;51.044;3.746;2022-07-29T10:18:10;22.00;91.70
13326;DHT22;6732;51.044;3.746;2022-07-29T10:20:38;22.10;91.50
13326;DHT22;6732;51.044;3.746;2022-07-29T10:23:05;22.10;91.30
13326;DHT22;6732;51.044;3.746;2022-07-29T10:25:31;22.10;91.10
13326;DHT22;6732;51.044;3.746;2022-07-29T10:27:57;22.20;91.40
13326;DHT22;6732;51.044;3.746;2022-07-29T10:30:25;22.20;91.70
13326;DHT22;6732;51.044;3.746;2022-07-29T10:44:03;22.30;90.10
13326;DHT22;6732;51.044;3.746;2022-07-29T10:46:35;22.30;90.10
13326;DHT22;6732;51.044;3.746;2022-07-29T10:51:57;22.40;90.50
13326;DHT22;6732;51.044;3.746;2022-07-29T10:54:42;22.50;90.00
13326;DHT22;6732;51.044;3.746;2022-07-29T10:57:20;22.50;89.40
13326;DHT22;6732;51.044;3.746;2022-07-29T10:59:52;22.50;88.70
13326;DHT22;6732;51.044;3.746;2022-07-29T11:02:41;22.50;88.60
13326;DHT22;6732;51.044;3.746;2022-07-29T11:05:14;22.50;90.10
13326;DHT22;6732;51.044;3.746;2022-07-29T11:10:38;22.60;90.00
13326;DHT22;6732;51.044;3.746;2022-07-29T11:13:04;22.60;89.10
13326;DHT22;6732;51.044;3.746;2022-07-29T11:15:57;22.70;88.90
13326;DHT22;6732;51.044;3.746;2022-07-29T11:18:23;22.70;88.80
13326;DHT22;6732;51.044;3.746;2022-07-29T11:20:51;22.70;90.00
13326;DHT22;6732;51.044;3.746;2022-07-29T11:23:27;22.70;89.80
13326;DHT22;6732;51.044;3.746;2022-07-29T11:28:42;22.70;87.80
13326;DHT22;6732;51.044;3.746;2022-07-29T11:33:57;22.70;88.90
13326;DHT22;6732;51.044;3.746;2022-07-29T11:36:23;22.70;88.50
13326;DHT22;6732;51.044;3.746;2022-07-29T11:38:48;22.70;88.70
13326;DHT22;6732;51.044;3.746;2022-07-29T11:41:21;22.80;89.00
13326;DHT22;6732;51.044;3.746;2022-07-29T11:43:55;22.80;89.40
13326;DHT22;6732;51.044;3.746;2022-07-29T11:46:47;22.80;89.70
13326;DHT22;6732;51.044;3.746;2022-07-29T11:49:21;22.80;89.60
13326;DHT22;6732;51.044;3.746;2022-07-29T11:51:56;22.90;88.90
13326;DHT22;6732;51.044;3.746;2022-07-29T11:54:31;22.90;89.40
13326;DHT22;6732;51.044;3.746;2022-07-29T11:56:58;22.90;89.40
13326;DHT22;6732;51.044;3.746;2022-07-29T11:59:25;22.90;88.20
13326;DHT22;6732;51.044;3.746;2022-07-29T12:01:58;23.00;89.10
13326;DHT22;6732;51.044;3.746;2022-07-29T12:04:25;23.00;89.50
13326;DHT22;6732;51.044;3.746;2022-07-29T12:06:53;23.10;90.00
13326;DHT22;6732;51.044;3.746;2022-07-29T12:09:19;23.10;90.00
13326;DHT22;6732;51.044;3.746;2022-07-29T12:11:47;23.10;88.70
13326;DHT22;6732;51.044;3.746;2022-07-29T12:14:33;23.20;88.60
13326;DHT22;6732;51.044;3.746;2022-07-29T12:16:59;23.20;87.30
13326;DHT22;6732;51.044;3.746;2022-07-29T12:19:28;23.20;86.20
13326;DHT22;6732;51.044;3.746;2022-07-29T12:21:55;23.20;86.80
13326;DHT22;6732;51.044;3.746;2022-07-29T12:24:24;23.20;87.00
13326;DHT22;6732;51.044;3.746;2022-07-29T12:29:16;23.20;86.50
13326;DHT22;6732;51.044;3.746;2022-07-29T12:31:44;23.20;86.10
13326;DHT22;6732;51.044;3.746;2022-07-29T12:34:12;23.20;85.70
13326;DHT22;6732;51.044;3.746;2022-07-29T12:36:38;23.20;86.90
13326;DHT22;6732;51.044;3.746;2022-07-29T12:39:04;23.30;87.70
13326;DHT22;6732;51.044;3.746;2022-07-29T12:41:30;23.30;89.00
13326;DHT22;6732;51.044;3.746;2022-07-29T12:43:57;23.30;87.80
13326;DHT22;6732;51.044;3.746;2022-07-29T12:46:23;23.30;88.00
13326;DHT22;6732;51.044;3.746;2022-07-29T12:48:53;23.30;88.50
13326;DHT22;6732;51.044;3.746;2022-07-29T12:54:14;23.40;86.10
13326;DHT22;6732;51.044;3.746;2022-07-29T12:56:41;23.40;85.90
13326;DHT22;6732;51.044;3.746;2022-07-29T12:59:19;23.40;86.20
13326;DHT22;6732;51.044;3.746;2022-07-29T13:01:47;23.40;85.20
13326;DHT22;6732;51.044;3.746;2022-07-29T13:09:42;23.40;85.00
13326;DHT22;6732;51.044;3.746;2022-07-29T13:12:11;23.50;85.80
13326;DHT22;6732;51.044;3.746;2022-07-29T13:14:40;23.50;86.10
13326;DHT22;6732;51.044;3.746;2022-07-29T13:17:12;23.50;86.90
13326;DHT22;6732;51.044;3.746;2022-07-29T13:19:50;23.50;87.60
13326;DHT22;6732;51.044;3.746;2022-07-29T13:22:19;23.60;87.50
13326;DHT22;6732;51.044;3.746;2022-07-29T13:27:24;23.60;86.30
13326;DHT22;6732;51.044;3.746;2022-07-29T13:29:51;23.60;86.60
13326;DHT22;6732;51.044;3.746;2022-07-29T13:32:19;23.60;86.70
13326;DHT22;6732;51.044;3.746;2022-07-29T13:34:45;23.60;86.50
13326;DHT22;6732;51.044;3.746;2022-07-29T13:37:10;23.60;87.20
13326;DHT22;6732;51.044;3.746;2022-07-29T13:39:36;23.60;87.40
13326;DHT22;6732;51.044;3.746;2022-07-29T13:42:04;23.70;88.10
13326;DHT22;6732;51.044;3.746;2022-07-29T13:44:30;23.70;87.90
13326;DHT22;6732;51.044;3.746;2022-07-29T13:46:56;23.70;87.60
13326;DHT22;6732;51.044;3.746;2022-07-29T13:49:24;23.80;87.30
13326;DHT22;6732;51.044;3.746;2022-07-29T13:51:50;23.80;87.40
13326;DHT22;6732;51.044;3.746;2022-07-29T13:54:16;23.80;87.00
13326;DHT22;6732;51.044;3.746;2022-07-29T13:56:42;23.90;87.20
13326;DHT22;6732;51.044;3.746;2022-07-29T13:59:08;23.80;86.70
13326;DHT22;6732;51.044;3.746;2022-07-29T14:01:35;23.90;86.70
13326;DHT22;6732;51.044;3.746;2022-07-29T14:04:01;23.90;86.90
13326;DHT22;6732;51.044;3.746;2022-07-29T14:06:27;23.90;87.90
13326;DHT22;6732;51.044;3.746;2022-07-29T14:08:53;23.90;87.60
13326;DHT22;6732;51.044;3.746;2022-07-29T14:11:19;23.90;86.70
13326;DHT22;6732;51.044;3.746;2022-07-29T14:13:45;23.90;86.30
13326;DHT22;6732;51.044;3.746;2022-07-29T14:16:11;23.90;86.10
13326;DHT22;6732;51.044;3.746;2022-07-29T14:18:37;23.80;86.00
13326;DHT22;6732;51.044;3.746;2022-07-29T14:21:03;23.80;86.10
13326;DHT22;6732;51.044;3.746;2022-07-29T14:23:29;23.90;86.00
13326;DHT22;6732;51.044;3.746;2022-07-29T14:25:56;23.90;85.90
13326;DHT22;6732;51.044;3.746;2022-07-29T14:28:21;23.90;86.10
13326;DHT22;6732;51.044;3.746;2022-07-29T14:30:47;23.90;85.90
13326;DHT22;6732;51.044;3.746;2022-07-29T14:33:13;23.90;86.00
13326;DHT22;6732;51.044;3.746;2022-07-29T14:35:39;23.90;86.00
13326;DHT22;6732;51.044;3.746;2022-07-29T14:38:05;23.90;86.80
13326;DHT22;6732;51.044;3.746;2022-07-29T14:40:32;23.90;86.10
13326;DHT22;6732;51.044;3.746;2022-07-29T14:42:58;23.90;85.90
13326;DHT22;6732;51.044;3.746;2022-07-29T14:45:24;23.90;86.00
13326;DHT22;6732;51.044;3.746;2022-07-29T14:47:49;24.00;86.90
13326;DHT22;6732;51.044;3.746;2022-07-29T14:50:16;24.00;87.80
13326;DHT22;6732;51.044;3.746;2022-07-29T14:52:44;24.00;87.30
13326;DHT22;6732;51.044;3.746;2022-07-29T14:55:10;24.00;87.90
13326;DHT22;6732;51.044;3.746;2022-07-29T14:57:36;24.00;87.70
13326;DHT22;6732;51.044;3.746;2022-07-29T15:00:04;24.00;87.40
13326;DHT22;6732;51.044;3.746;2022-07-29T15:02:33;24.00;87.60
13326;DHT22;6732;51.044;3.746;2022-07-29T15:04:59;24.00;87.90
13326;DHT22;6732;51.044;3.746;2022-07-29T15:07:25;24.00;87.70
13326;DHT22;6732;51.044;3.746;2022-07-29T15:09:51;24.00;86.80
13326;DHT22;6732;51.044;3.746;2022-07-29T15:12:17;24.10;86.50
13326;DHT22;6732;51.044;3.746;2022-07-29T15:14:43;24.10;86.10
13326;DHT22;6732;51.044;3.746;2022-07-29T15:17:09;24.10;86.10
13326;DHT22;6732;51.044;3.746;2022-07-29T15:19:35;24.10;85.70
13326;DHT22;6732;51.044;3.746;2022-07-29T15:22:01;24.10;85.70
13326;DHT22;6732;51.044;3.746;2022-07-29T15:24:27;24.10;85.50
13326;DHT22;6732;51.044;3.746;2022-07-29T15:26:53;24.10;85.30
13326;DHT22;6732;51.044;3.746;2022-07-29T15:29:19;24.10;85.00
13326;DHT22;6732;51.044;3.746;2022-07-29T15:31:45;24.00;85.20
13326;DHT22;6732;51.044;3.746;2022-07-29T15:34:11;24.10;85.60
13326;DHT22;6732;51.044;3.746;2022-07-29T15:36:38;24.10;86.50
13326;DHT22;6732;51.044;3.746;2022-07-29T15:39:04;24.10;86.20
13326;DHT22;6732;51.044;3.746;2022-07-29T15:41:29;24.10;86.70
13326;DHT22;6732;51.044;3.746;2022-07-29T15:43:55;24.10;87.00
13326;DHT22;6732;51.044;3.746;2022-07-29T15:46:21;24.20;87.00
13326;DHT22;6732;51.044;3.746;2022-07-29T15:49:06;24.20;87.20
13326;DHT22;6732;51.044;3.746;2022-07-29T15:51:33;24.10;86.30
13326;DHT22;6732;51.044;3.746;2022-07-29T15:54:00;24.10;85.90
13326;DHT22;6732;51.044;3.746;2022-07-29T15:56:27;24.10;85.80
13326;DHT22;6732;51.044;3.746;2022-07-29T15:58:53;24.10;85.70
13326;DHT22;6732;51.044;3.746;2022-07-29T16:01:19;24.10;85.80
13326;DHT22;6732;51.044;3.746;2022-07-29T16:03:45;24.10;86.00
13326;DHT22;6732;51.044;3.746;2022-07-29T16:06:11;24.10;86.50
13326;DHT22;6732;51.044;3.746;2022-07-29T16:08:37;24.10;86.80
13326;DHT22;6732;51.044;3.746;2022-07-29T16:11:03;24.10;86.50
13326;DHT22;6732;51.044;3.746;2022-07-29T16:13:29;24.10;86.30
13326;DHT22;6732;51.044;3.746;2022-07-29T16:15:55;24.10;85.90
13326;DHT22;6732;51.044;3.746;2022-07-29T16:18:21;24.10;85.80
13326;DHT22;6732;51.044;3.746;2022-07-29T16:20:47;24.00;85.80
13326;DHT22;6732;51.044;3.746;2022-07-29T16:23:13;24.00;85.90
13326;DHT22;6732;51.044;3.746;2022-07-29T16:25:40;24.00;85.90
13326;DHT22;6732;51.044;3.746;2022-07-29T16:28:07;24.00;86.00
13326;DHT22;6732;51.044;3.746;2022-07-29T16:30:36;24.00;85.70
13326;DHT22;6732;51.044;3.746;2022-07-29T16:33:02;24.00;85.50
13326;DHT22;6732;51.044;3.746;2022-07-29T16:35:28;24.00;85.50
13326;DHT22;6732;51.044;3.746;2022-07-29T16:37:57;24.00;85.60